sensor_id;sensor_type;location;lat;lon;timestamp;P1;durP1;ratioP1;P2;durP2;ratioP2
76837;SDS011;65797;47.352;8.164;2023-06-10T00:00:41;5.33;;;4.80;;
76837;SDS011;65797;47.352;8.164;2023-06-10T00:03:07;5.43;;;4.93;;
76837;SDS011;65797;47.352;8.164;2023-06-10T00:05:37;8.23;;;6.30;;
76837;SDS011;65797;47.352;8.164;2023-06-10T00:08:04;5.57;;;4.97;;
76837;SDS011;65797;47.352;8.164;2023-06-10T00:10:37;5.70;;;4.70;;
76837;SDS011;65797;47.352;8.164;2023-06-10T00:13:03;6.07;;;5.23;;
76837;SDS011;65797;47.352;8.164;2023-06-10T00:15:30;5.57;;;5.07;;
76837;SDS011;65797;47.352;8.164;2023-06-10T00:17:56;5.27;;;4.77;;
76837;SDS011;65797;47.352;8.164;2023-06-10T00:20:22;5.40;;;4.40;;
76837;SDS011;65797;47.352;8.164;2023-06-10T00:22:54;6.80;;;5.87;;
76837;SDS011;65797;47.352;8.164;2023-06-10T00:25:19;6.77;;;6.07;;
76837;SDS011;65797;47.352;8.164;2023-06-10T00:27:45;5.60;;;5.10;;
76837;SDS011;65797;47.352;8.164;2023-06-10T00:30:11;7.50;;;5.50;;
76837;SDS011;65797;47.352;8.164;2023-06-10T00:32:37;8.20;;;5.60;;
76837;SDS011;65797;47.352;8.164;2023-06-10T00:35:03;7.27;;;5.10;;
76837;SDS011;65797;47.352;8.164;2023-06-10T00:37:29;7.97;;;5.27;;
76837;SDS011;65797;47.352;8.164;2023-06-10T00:39:55;7.23;;;5.30;;
76837;SDS011;65797;47.352;8.164;2023-06-10T00:42:21;9.80;;;5.13;;
76837;SDS011;65797;47.352;8.164;2023-06-10T00:44:49;6.43;;;5.70;;
76837;SDS011;65797;47.352;8.164;2023-06-10T00:47:15;10.23;;;5.00;;
76837;SDS011;65797;47.352;8.164;2023-06-10T00:49:41;7.50;;;5.80;;
76837;SDS011;65797;47.352;8.164;2023-06-10T00:52:07;6.70;;;5.17;;
76837;SDS011;65797;47.352;8.164;2023-06-10T00:54:35;7.60;;;5.23;;
76837;SDS011;65797;47.352;8.164;2023-06-10T00:57:02;6.50;;;5.73;;
76837;SDS011;65797;47.352;8.164;2023-06-10T00:59:29;10.20;;;5.53;;
76837;SDS011;65797;47.352;8.164;2023-06-10T01:01:56;5.80;;;4.77;;
76837;SDS011;65797;47.352;8.164;2023-06-10T01:04:22;6.27;;;5.37;;
76837;SDS011;65797;47.352;8.164;2023-06-10T01:14:40;6.80;;;6.10;;
76837;SDS011;65797;47.352;8.164;2023-06-10T01:17:10;5.93;;;5.23;;
76837;SDS011;65797;47.352;8.164;2023-06-10T01:19:36;6.40;;;5.40;;
76837;SDS011;65797;47.352;8.164;2023-06-10T01:22:02;5.53;;;5.03;;
76837;SDS011;65797;47.352;8.164;2023-06-10T01:24:29;6.43;;;5.57;;
76837;SDS011;65797;47.352;8.164;2023-06-10T01:27:00;9.33;;;6.17;;
76837;SDS011;65797;47.352;8.164;2023-06-10T01:29:33;7.00;;;5.90;;
76837;SDS011;65797;47.352;8.164;2023-06-10T01:32:06;7.30;;;5.73;;
76837;SDS011;65797;47.352;8.164;2023-06-10T01:34:40;7.70;;;6.63;;
76837;SDS011;65797;47.352;8.164;2023-06-10T01:37:08;7.50;;;5.63;;
76837;SDS011;65797;47.352;8.164;2023-06-10T01:39:37;8.40;;;6.20;;
76837;SDS011;65797;47.352;8.164;2023-06-10T01:42:04;6.80;;;6.10;;
76837;SDS011;65797;47.352;8.164;2023-06-10T01:44:31;6.60;;;5.90;;
76837;SDS011;65797;47.352;8.164;2023-06-10T01:46:57;7.20;;;6.10;;
76837;SDS011;65797;47.352;8.164;2023-06-10T01:49:23;5.63;;;5.13;;
76837;SDS011;65797;47.352;8.164;2023-06-10T01:51:49;6.10;;;5.50;;
76837;SDS011;65797;47.352;8.164;2023-06-10T01:54:15;7.03;;;6.07;;
76837;SDS011;65797;47.352;8.164;2023-06-10T01:56:41;6.50;;;5.73;;
76837;SDS011;65797;47.352;8.164;2023-06-10T01:59:07;6.40;;;5.73;;
76837;SDS011;65797;47.352;8.164;2023-06-10T02:01:33;9.63;;;6.17;;
76837;SDS011;65797;47.352;8.164;2023-06-10T02:03:58;8.60;;;6.17;;
76837;SDS011;65797;47.352;8.164;2023-06-10T02:06:24;6.73;;;5.53;;
76837;SDS011;65797;47.352;8.164;2023-06-10T02:08:50;6.17;;;5.20;;
76837;SDS011;65797;47.352;8.164;2023-06-10T02:11:16;12.70;;;6.30;;
76837;SDS011;65797;47.352;8.164;2023-06-10T02:13:41;9.90;;;5.87;;
76837;SDS011;65797;47.352;8.164;2023-06-10T02:16:08;6.60;;;6.00;;
76837;SDS011;65797;47.352;8.164;2023-06-10T02:18:37;7.40;;;6.63;;
76837;SDS011;65797;47.352;8.164;2023-06-10T02:21:05;6.57;;;5.87;;
76837;SDS011;65797;47.352;8.164;2023-06-10T02:23:32;12.50;;;6.17;;
76837;SDS011;65797;47.352;8.164;2023-06-10T02:25:57;11.53;;;6.73;;
76837;SDS011;65797;47.352;8.164;2023-06-10T02:28:23;7.50;;;6.20;;
76837;SDS011;65797;47.352;8.164;2023-06-10T02:30:49;7.43;;;6.20;;
76837;SDS011;65797;47.352;8.164;2023-06-10T02:33:17;7.97;;;6.10;;
76837;SDS011;65797;47.352;8.164;2023-06-10T02:35:46;7.10;;;6.40;;
76837;SDS011;65797;47.352;8.164;2023-06-10T02:38:12;7.37;;;6.63;;
76837;SDS011;65797;47.352;8.164;2023-06-10T02:40:38;6.87;;;6.17;;
76837;SDS011;65797;47.352;8.164;2023-06-10T02:43:04;7.03;;;6.30;;
76837;SDS011;65797;47.352;8.164;2023-06-10T02:45:29;15.70;;;6.90;;
76837;SDS011;65797;47.352;8.164;2023-06-10T02:47:55;7.10;;;6.40;;
76837;SDS011;65797;47.352;8.164;2023-06-10T02:50:21;8.00;;;6.30;;
76837;SDS011;65797;47.352;8.164;2023-06-10T02:52:48;7.50;;;6.50;;
76837;SDS011;65797;47.352;8.164;2023-06-10T02:55:15;8.77;;;5.77;;
76837;SDS011;65797;47.352;8.164;2023-06-10T02:57:40;9.17;;;7.27;;
76837;SDS011;65797;47.352;8.164;2023-06-10T03:00:06;10.40;;;6.60;;
76837;SDS011;65797;47.352;8.164;2023-06-10T03:02:36;9.60;;;7.17;;
76837;SDS011;65797;47.352;8.164;2023-06-10T03:05:04;7.70;;;6.43;;
76837;SDS011;65797;47.352;8.164;2023-06-10T03:07:30;7.40;;;6.60;;
76837;SDS011;65797;47.352;8.164;2023-06-10T03:09:57;8.93;;;6.27;;
76837;SDS011;65797;47.352;8.164;2023-06-10T03:12:23;6.73;;;5.97;;
76837;SDS011;65797;47.352;8.164;2023-06-10T03:14:48;8.33;;;6.80;;
76837;SDS011;65797;47.352;8.164;2023-06-10T03:17:14;9.23;;;7.10;;
76837;SDS011;65797;47.352;8.164;2023-06-10T03:19:40;9.23;;;6.83;;
76837;SDS011;65797;47.352;8.164;2023-06-10T03:22:09;9.30;;;6.60;;
76837;SDS011;65797;47.352;8.164;2023-06-10T03:24:36;8.63;;;6.50;;
76837;SDS011;65797;47.352;8.164;2023-06-10T03:27:05;12.80;;;6.60;;
76837;SDS011;65797;47.352;8.164;2023-06-10T03:29:34;9.97;;;7.73;;
76837;SDS011;65797;47.352;8.164;2023-06-10T03:32:01;7.73;;;6.93;;
76837;SDS011;65797;47.352;8.164;2023-06-10T03:34:26;9.60;;;6.10;;
76837;SDS011;65797;47.352;8.164;2023-06-10T03:36:52;9.17;;;6.10;;
76837;SDS011;65797;47.352;8.164;2023-06-10T03:39:18;7.40;;;6.70;;
76837;SDS011;65797;47.352;8.164;2023-06-10T03:41:44;8.00;;;7.20;;
76837;SDS011;65797;47.352;8.164;2023-06-10T03:44:10;7.50;;;6.70;;
76837;SDS011;65797;47.352;8.164;2023-06-10T03:46:35;7.20;;;6.50;;
76837;SDS011;65797;47.352;8.164;2023-06-10T03:49:01;9.00;;;6.33;;
76837;SDS011;65797;47.352;8.164;2023-06-10T03:51:29;9.03;;;6.67;;
76837;SDS011;65797;47.352;8.164;2023-06-10T03:53:55;9.63;;;7.03;;
76837;SDS011;65797;47.352;8.164;2023-06-10T03:56:20;14.83;;;6.80;;
76837;SDS011;65797;47.352;8.164;2023-06-10T03:58:46;9.03;;;6.97;;
76837;SDS011;65797;47.352;8.164;2023-06-10T04:01:12;7.30;;;6.60;;
76837;SDS011;65797;47.352;8.164;2023-06-10T04:03:43;7.57;;;6.87;;
76837;SDS011;65797;47.352;8.164;2023-06-10T04:06:09;7.57;;;6.60;;
76837;SDS011;65797;47.352;8.164;2023-06-10T04:08:34;7.17;;;6.30;;
76837;SDS011;65797;47.352;8.164;2023-06-10T04:11:01;8.07;;;6.73;;
76837;SDS011;65797;47.352;8.164;2023-06-10T04:13:27;9.17;;;7.40;;
76837;SDS011;65797;47.352;8.164;2023-06-10T04:15:53;7.77;;;5.80;;
76837;SDS011;65797;47.352;8.164;2023-06-10T04:18:19;7.27;;;6.57;;
76837;SDS011;65797;47.352;8.164;2023-06-10T04:20:46;9.00;;;7.10;;
76837;SDS011;65797;47.352;8.164;2023-06-10T04:23:12;8.97;;;6.90;;
76837;SDS011;65797;47.352;8.164;2023-06-10T04:25:38;7.93;;;6.80;;
76837;SDS011;65797;47.352;8.164;2023-06-10T04:28:03;9.37;;;6.23;;
76837;SDS011;65797;47.352;8.164;2023-06-10T04:30:29;6.90;;;6.20;;
76837;SDS011;65797;47.352;8.164;2023-06-10T04:32:56;6.83;;;6.00;;
76837;SDS011;65797;47.352;8.164;2023-06-10T04:35:22;12.47;;;7.20;;
76837;SDS011;65797;47.352;8.164;2023-06-10T04:37:48;8.60;;;6.50;;
76837;SDS011;65797;47.352;8.164;2023-06-10T04:40:13;16.60;;;6.83;;
76837;SDS011;65797;47.352;8.164;2023-06-10T04:42:40;9.93;;;6.87;;
76837;SDS011;65797;47.352;8.164;2023-06-10T04:45:06;8.93;;;6.53;;
76837;SDS011;65797;47.352;8.164;2023-06-10T04:47:33;11.97;;;8.07;;
76837;SDS011;65797;47.352;8.164;2023-06-10T04:50:02;8.47;;;6.93;;
76837;SDS011;65797;47.352;8.164;2023-06-10T04:52:30;10.60;;;6.73;;
76837;SDS011;65797;47.352;8.164;2023-06-10T04:54:57;10.70;;;7.03;;
76837;SDS011;65797;47.352;8.164;2023-06-10T04:57:23;10.50;;;7.10;;
76837;SDS011;65797;47.352;8.164;2023-06-10T04:59:49;7.13;;;6.43;;
76837;SDS011;65797;47.352;8.164;2023-06-10T05:02:14;10.33;;;6.27;;
76837;SDS011;65797;47.352;8.164;2023-06-10T05:04:40;7.60;;;6.80;;
76837;SDS011;65797;47.352;8.164;2023-06-10T05:07:06;9.70;;;7.47;;
76837;SDS011;65797;47.352;8.164;2023-06-10T05:09:32;7.83;;;6.90;;
76837;SDS011;65797;47.352;8.164;2023-06-10T05:11:58;7.40;;;6.70;;
76837;SDS011;65797;47.352;8.164;2023-06-10T05:14:23;8.93;;;7.03;;
76837;SDS011;65797;47.352;8.164;2023-06-10T05:16:49;8.33;;;7.53;;
76837;SDS011;65797;47.352;8.164;2023-06-10T05:19:15;7.97;;;6.70;;
76837;SDS011;65797;47.352;8.164;2023-06-10T05:21:44;7.43;;;6.70;;
76837;SDS011;65797;47.352;8.164;2023-06-10T05:24:10;8.30;;;6.90;;
76837;SDS011;65797;47.352;8.164;2023-06-10T05:26:36;8.37;;;6.97;;
76837;SDS011;65797;47.352;8.164;2023-06-10T05:29:03;7.53;;;6.80;;
76837;SDS011;65797;47.352;8.164;2023-06-10T05:31:29;9.63;;;7.30;;
76837;SDS011;65797;47.352;8.164;2023-06-10T05:33:55;7.57;;;6.80;;
76837;SDS011;65797;47.352;8.164;2023-06-10T05:36:21;12.90;;;7.33;;
76837;SDS011;65797;47.352;8.164;2023-06-10T05:38:50;9.33;;;7.20;;
76837;SDS011;65797;47.352;8.164;2023-06-10T05:41:15;8.70;;;7.80;;
76837;SDS011;65797;47.352;8.164;2023-06-10T05:43:41;8.77;;;7.10;;
76837;SDS011;65797;47.352;8.164;2023-06-10T05:46:07;17.70;;;7.50;;
76837;SDS011;65797;47.352;8.164;2023-06-10T05:48:33;11.33;;;7.43;;
76837;SDS011;65797;47.352;8.164;2023-06-10T05:50:58;7.83;;;6.53;;
76837;SDS011;65797;47.352;8.164;2023-06-10T05:53:24;7.30;;;6.57;;
76837;SDS011;65797;47.352;8.164;2023-06-10T05:55:50;7.00;;;6.30;;
76837;SDS011;65797;47.352;8.164;2023-06-10T05:58:17;8.33;;;6.80;;
76837;SDS011;65797;47.352;8.164;2023-06-10T06:00:43;6.70;;;6.10;;
76837;SDS011;65797;47.352;8.164;2023-06-10T06:03:08;10.37;;;6.53;;
76837;SDS011;65797;47.352;8.164;2023-06-10T06:05:35;7.00;;;5.97;;
76837;SDS011;65797;47.352;8.164;2023-06-10T06:08:03;6.60;;;6.00;;
76837;SDS011;65797;47.352;8.164;2023-06-10T06:10:32;6.30;;;5.50;;
76837;SDS011;65797;47.352;8.164;2023-06-10T06:12:58;5.90;;;5.30;;
76837;SDS011;65797;47.352;8.164;2023-06-10T06:15:25;7.17;;;5.97;;
76837;SDS011;65797;47.352;8.164;2023-06-10T06:17:50;7.10;;;6.30;;
76837;SDS011;65797;47.352;8.164;2023-06-10T06:20:18;6.40;;;5.80;;
76837;SDS011;65797;47.352;8.164;2023-06-10T06:22:44;6.40;;;5.80;;
76837;SDS011;65797;47.352;8.164;2023-06-10T06:25:10;7.17;;;5.87;;
76837;SDS011;65797;47.352;8.164;2023-06-10T06:27:36;5.83;;;4.80;;
76837;SDS011;65797;47.352;8.164;2023-06-10T06:30:01;10.70;;;5.83;;
76837;SDS011;65797;47.352;8.164;2023-06-10T06:32:27;6.57;;;5.93;;
76837;SDS011;65797;47.352;8.164;2023-06-10T06:34:53;6.30;;;5.60;;
76837;SDS011;65797;47.352;8.164;2023-06-10T06:37:23;5.20;;;4.70;;
76837;SDS011;65797;47.352;8.164;2023-06-10T06:39:50;6.63;;;6.00;;
76837;SDS011;65797;47.352;8.164;2023-06-10T06:42:16;6.17;;;5.00;;
76837;SDS011;65797;47.352;8.164;2023-06-10T06:44:42;5.57;;;4.53;;
76837;SDS011;65797;47.352;8.164;2023-06-10T06:47:08;5.37;;;4.67;;
76837;SDS011;65797;47.352;8.164;2023-06-10T06:49:34;5.00;;;3.93;;
76837;SDS011;65797;47.352;8.164;2023-06-10T06:52:05;7.20;;;5.20;;
76837;SDS011;65797;47.352;8.164;2023-06-10T06:54:31;6.30;;;5.10;;
76837;SDS011;65797;47.352;8.164;2023-06-10T06:56:57;10.53;;;5.10;;
76837;SDS011;65797;47.352;8.164;2023-06-10T06:59:23;6.10;;;4.60;;
76837;SDS011;65797;47.352;8.164;2023-06-10T07:01:50;5.23;;;4.73;;
76837;SDS011;65797;47.352;8.164;2023-06-10T07:04:16;6.47;;;4.93;;
76837;SDS011;65797;47.352;8.164;2023-06-10T07:06:42;6.73;;;4.50;;
76837;SDS011;65797;47.352;8.164;2023-06-10T07:09:08;5.90;;;4.83;;
76837;SDS011;65797;47.352;8.164;2023-06-10T07:11:34;7.90;;;5.13;;
76837;SDS011;65797;47.352;8.164;2023-06-10T07:14:00;5.73;;;5.07;;
76837;SDS011;65797;47.352;8.164;2023-06-10T07:16:25;5.93;;;4.77;;
76837;SDS011;65797;47.352;8.164;2023-06-10T07:18:52;5.80;;;4.50;;
76837;SDS011;65797;47.352;8.164;2023-06-10T07:21:18;4.57;;;4.17;;
76837;SDS011;65797;47.352;8.164;2023-06-10T07:23:44;6.77;;;4.63;;
76837;SDS011;65797;47.352;8.164;2023-06-10T07:26:11;5.50;;;4.67;;
76837;SDS011;65797;47.352;8.164;2023-06-10T07:28:39;6.10;;;5.33;;
76837;SDS011;65797;47.352;8.164;2023-06-10T07:31:05;5.17;;;4.67;;
76837;SDS011;65797;47.352;8.164;2023-06-10T07:33:32;9.27;;;5.53;;
76837;SDS011;65797;47.352;8.164;2023-06-10T07:35:57;6.63;;;4.90;;
76837;SDS011;65797;47.352;8.164;2023-06-10T07:38:24;5.40;;;4.70;;
76837;SDS011;65797;47.352;8.164;2023-06-10T07:40:50;6.83;;;4.90;;
76837;SDS011;65797;47.352;8.164;2023-06-10T07:43:16;5.13;;;4.73;;
76837;SDS011;65797;47.352;8.164;2023-06-10T07:45:42;5.93;;;4.93;;
76837;SDS011;65797;47.352;8.164;2023-06-10T07:48:08;6.40;;;5.10;;
76837;SDS011;65797;47.352;8.164;2023-06-10T07:50:34;4.63;;;4.23;;
76837;SDS011;65797;47.352;8.164;2023-06-10T07:53:00;6.67;;;6.00;;
76837;SDS011;65797;47.352;8.164;2023-06-10T07:55:26;5.47;;;4.70;;
76837;SDS011;65797;47.352;8.164;2023-06-10T07:57:52;5.57;;;5.07;;
76837;SDS011;65797;47.352;8.164;2023-06-10T08:00:21;7.10;;;5.33;;
76837;SDS011;65797;47.352;8.164;2023-06-10T08:02:48;5.83;;;4.93;;
76837;SDS011;65797;47.352;8.164;2023-06-10T08:05:13;5.70;;;5.10;;
76837;SDS011;65797;47.352;8.164;2023-06-10T08:07:39;6.83;;;6.13;;
76837;SDS011;65797;47.352;8.164;2023-06-10T08:10:05;5.73;;;5.23;;
76837;SDS011;65797;47.352;8.164;2023-06-10T08:12:32;6.03;;;5.37;;
76837;SDS011;65797;47.352;8.164;2023-06-10T08:14:58;5.83;;;5.23;;
76837;SDS011;65797;47.352;8.164;2023-06-10T08:17:24;6.33;;;5.80;;
76837;SDS011;65797;47.352;8.164;2023-06-10T08:19:50;5.70;;;5.20;;
76837;SDS011;65797;47.352;8.164;2023-06-10T08:22:15;7.20;;;5.57;;
76837;SDS011;65797;47.352;8.164;2023-06-10T08:24:41;6.23;;;5.23;;
76837;SDS011;65797;47.352;8.164;2023-06-10T08:27:25;9.87;;;5.33;;
76837;SDS011;65797;47.352;8.164;2023-06-10T08:29:51;9.83;;;5.67;;
76837;SDS011;65797;47.352;8.164;2023-06-10T08:32:16;5.43;;;4.93;;
76837;SDS011;65797;47.352;8.164;2023-06-10T08:34:48;5.30;;;4.80;;
76837;SDS011;65797;47.352;8.164;2023-06-10T08:37:24;8.67;;;5.20;;
76837;SDS011;65797;47.352;8.164;2023-06-10T08:39:50;8.33;;;4.87;;
76837;SDS011;65797;47.352;8.164;2023-06-10T08:44:56;5.17;;;4.70;;
76837;SDS011;65797;47.352;8.164;2023-06-10T08:47:24;5.03;;;4.53;;
76837;SDS011;65797;47.352;8.164;2023-06-10T08:49:56;5.30;;;4.80;;
76837;SDS011;65797;47.352;8.164;2023-06-10T08:52:50;5.53;;;5.03;;
76837;SDS011;65797;47.352;8.164;2023-06-10T08:55:23;5.53;;;5.03;;
76837;SDS011;65797;47.352;8.164;2023-06-10T08:57:55;9.40;;;5.43;;
76837;SDS011;65797;47.352;8.164;2023-06-10T09:00:28;6.30;;;5.00;;
76837;SDS011;65797;47.352;8.164;2023-06-10T09:02:57;7.77;;;4.90;;
76837;SDS011;65797;47.352;8.164;2023-06-10T09:05:37;7.90;;;6.23;;
76837;SDS011;65797;47.352;8.164;2023-06-10T09:08:13;6.10;;;5.50;;
76837;SDS011;65797;47.352;8.164;2023-06-10T09:10:47;5.60;;;5.10;;
76837;SDS011;65797;47.352;8.164;2023-06-10T09:13:13;7.23;;;4.80;;
76837;SDS011;65797;47.352;8.164;2023-06-10T09:15:40;5.97;;;5.40;;
76837;SDS011;65797;47.352;8.164;2023-06-10T09:18:11;5.10;;;4.60;;
76837;SDS011;65797;47.352;8.164;2023-06-10T09:20:38;5.67;;;5.03;;
76837;SDS011;65797;47.352;8.164;2023-06-10T09:23:04;9.30;;;6.07;;
76837;SDS011;65797;47.352;8.164;2023-06-10T09:25:38;5.50;;;5.07;;
76837;SDS011;65797;47.352;8.164;2023-06-10T09:28:04;5.33;;;4.93;;
76837;SDS011;65797;47.352;8.164;2023-06-10T09:30:37;5.57;;;5.07;;
76837;SDS011;65797;47.352;8.164;2023-06-10T09:33:03;7.30;;;5.37;;
76837;SDS011;65797;47.352;8.164;2023-06-10T09:35:44;6.53;;;5.30;;
76837;SDS011;65797;47.352;8.164;2023-06-10T09:38:20;5.33;;;4.83;;
76837;SDS011;65797;47.352;8.164;2023-06-10T09:40:51;4.57;;;4.17;;
76837;SDS011;65797;47.352;8.164;2023-06-10T09:43:18;4.93;;;4.53;;
76837;SDS011;65797;47.352;8.164;2023-06-10T09:45:43;5.47;;;4.70;;
76837;SDS011;65797;47.352;8.164;2023-06-10T09:48:12;6.40;;;5.20;;
76837;SDS011;65797;47.352;8.164;2023-06-10T09:50:48;5.53;;;4.90;;
76837;SDS011;65797;47.352;8.164;2023-06-10T09:53:13;6.97;;;4.80;;
76837;SDS011;65797;47.352;8.164;2023-06-10T09:55:46;5.23;;;4.73;;
76837;SDS011;65797;47.352;8.164;2023-06-10T09:58:11;5.40;;;4.93;;
76837;SDS011;65797;47.352;8.164;2023-06-10T10:00:37;6.87;;;5.07;;
76837;SDS011;65797;47.352;8.164;2023-06-10T10:03:03;5.67;;;4.90;;
76837;SDS011;65797;47.352;8.164;2023-06-10T10:05:28;6.70;;;5.33;;
76837;SDS011;65797;47.352;8.164;2023-06-10T10:07:55;5.40;;;4.90;;
76837;SDS011;65797;47.352;8.164;2023-06-10T10:10:21;10.67;;;8.70;;
76837;SDS011;65797;47.352;8.164;2023-06-10T10:12:47;4.73;;;4.33;;
76837;SDS011;65797;47.352;8.164;2023-06-10T10:15:16;6.37;;;4.93;;
76837;SDS011;65797;47.352;8.164;2023-06-10T10:20:50;6.70;;;5.20;;
76837;SDS011;65797;47.352;8.164;2023-06-10T10:23:38;5.80;;;4.53;;
76837;SDS011;65797;47.352;8.164;2023-06-10T10:26:35;5.10;;;4.70;;
76837;SDS011;65797;47.352;8.164;2023-06-10T10:32:04;9.73;;;5.10;;
76837;SDS011;65797;47.352;8.164;2023-06-10T10:37:43;5.73;;;4.47;;
76837;SDS011;65797;47.352;8.164;2023-06-10T10:40:09;5.17;;;4.70;;
76837;SDS011;65797;47.352;8.164;2023-06-10T10:42:36;5.47;;;4.93;;
76837;SDS011;65797;47.352;8.164;2023-06-10T10:45:03;5.57;;;4.60;;
76837;SDS011;65797;47.352;8.164;2023-06-10T10:47:40;7.50;;;4.67;;
76837;SDS011;65797;47.352;8.164;2023-06-10T10:50:29;5.13;;;4.70;;
76837;SDS011;65797;47.352;8.164;2023-06-10T10:52:56;5.90;;;5.17;;
76837;SDS011;65797;47.352;8.164;2023-06-10T10:55:26;5.30;;;4.70;;
76837;SDS011;65797;47.352;8.164;2023-06-10T10:57:59;6.17;;;4.80;;
76837;SDS011;65797;47.352;8.164;2023-06-10T11:00:43;5.97;;;5.37;;
76837;SDS011;65797;47.352;8.164;2023-06-10T11:03:16;7.50;;;5.57;;
76837;SDS011;65797;47.352;8.164;2023-06-10T11:08:13;7.23;;;5.60;;
76837;SDS011;65797;47.352;8.164;2023-06-10T11:10:40;5.40;;;5.00;;
76837;SDS011;65797;47.352;8.164;2023-06-10T11:13:15;5.27;;;4.87;;
76837;SDS011;65797;47.352;8.164;2023-06-10T11:15:48;5.57;;;5.07;;
76837;SDS011;65797;47.352;8.164;2023-06-10T11:31:23;6.87;;;5.23;;
76837;SDS011;65797;47.352;8.164;2023-06-10T11:33:55;6.00;;;5.50;;
76837;SDS011;65797;47.352;8.164;2023-06-10T11:36:24;5.33;;;4.83;;
76837;SDS011;65797;47.352;8.164;2023-06-10T11:38:53;5.70;;;5.20;;
76837;SDS011;65797;47.352;8.164;2023-06-10T12:11:51;4.27;;;3.97;;
76837;SDS011;65797;47.352;8.164;2023-06-10T12:17:16;6.40;;;3.43;;
76837;SDS011;65797;47.352;8.164;2023-06-10T12:19:42;4.40;;;4.00;;
76837;SDS011;65797;47.352;8.164;2023-06-10T12:22:08;4.80;;;4.33;;
76837;SDS011;65797;47.352;8.164;2023-06-10T12:24:42;5.70;;;3.70;;
76837;SDS011;65797;47.352;8.164;2023-06-10T12:27:28;4.30;;;4.00;;
76837;SDS011;65797;47.352;8.164;2023-06-10T12:29:54;4.63;;;4.20;;
76837;SDS011;65797;47.352;8.164;2023-06-10T12:32:21;5.60;;;4.23;;
76837;SDS011;65797;47.352;8.164;2023-06-10T12:35:01;4.30;;;4.00;;
76837;SDS011;65797;47.352;8.164;2023-06-10T12:37:31;5.10;;;4.07;;
76837;SDS011;65797;47.352;8.164;2023-06-10T12:40:01;6.17;;;4.10;;
76837;SDS011;65797;47.352;8.164;2023-06-10T12:42:28;4.80;;;4.17;;
76837;SDS011;65797;47.352;8.164;2023-06-10T12:44:56;3.73;;;3.43;;
76837;SDS011;65797;47.352;8.164;2023-06-10T12:47:31;5.30;;;4.37;;
76837;SDS011;65797;47.352;8.164;2023-06-10T12:50:03;10.60;;;4.67;;
76837;SDS011;65797;47.352;8.164;2023-06-10T12:52:29;4.50;;;4.10;;
76837;SDS011;65797;47.352;8.164;2023-06-10T12:54:55;4.23;;;3.90;;
76837;SDS011;65797;47.352;8.164;2023-06-10T12:57:21;5.27;;;4.40;;
76837;SDS011;65797;47.352;8.164;2023-06-10T12:59:48;5.17;;;3.80;;
76837;SDS011;65797;47.352;8.164;2023-06-10T13:02:25;8.13;;;4.60;;
76837;SDS011;65797;47.352;8.164;2023-06-10T13:04:51;6.20;;;4.83;;
76837;SDS011;65797;47.352;8.164;2023-06-10T13:07:17;4.50;;;4.10;;
76837;SDS011;65797;47.352;8.164;2023-06-10T13:09:43;4.17;;;3.80;;
76837;SDS011;65797;47.352;8.164;2023-06-10T13:12:09;5.20;;;3.50;;
76837;SDS011;65797;47.352;8.164;2023-06-10T13:14:35;8.63;;;4.60;;
76837;SDS011;65797;47.352;8.164;2023-06-10T13:17:03;4.27;;;3.87;;
76837;SDS011;65797;47.352;8.164;2023-06-10T13:19:31;4.03;;;3.63;;
76837;SDS011;65797;47.352;8.164;2023-06-10T13:21:57;4.30;;;4.00;;
76837;SDS011;65797;47.352;8.164;2023-06-10T13:24:24;4.37;;;3.97;;
76837;SDS011;65797;47.352;8.164;2023-06-10T13:26:50;4.73;;;4.33;;
76837;SDS011;65797;47.352;8.164;2023-06-10T13:29:15;4.80;;;4.00;;
76837;SDS011;65797;47.352;8.164;2023-06-10T13:31:41;6.13;;;4.40;;
76837;SDS011;65797;47.352;8.164;2023-06-10T13:34:07;4.33;;;3.70;;
76837;SDS011;65797;47.352;8.164;2023-06-10T13:36:33;4.60;;;3.63;;
76837;SDS011;65797;47.352;8.164;2023-06-10T13:38:58;3.53;;;3.23;;
76837;SDS011;65797;47.352;8.164;2023-06-10T13:41:24;3.60;;;3.33;;
76837;SDS011;65797;47.352;8.164;2023-06-10T13:43:53;3.73;;;3.53;;
76837;SDS011;65797;47.352;8.164;2023-06-10T13:46:19;3.83;;;3.50;;
76837;SDS011;65797;47.352;8.164;2023-06-10T13:48:46;4.10;;;3.80;;
76837;SDS011;65797;47.352;8.164;2023-06-10T13:51:12;4.10;;;3.80;;
76837;SDS011;65797;47.352;8.164;2023-06-10T13:53:38;4.80;;;4.30;;
76837;SDS011;65797;47.352;8.164;2023-06-10T13:56:04;6.30;;;4.60;;
76837;SDS011;65797;47.352;8.164;2023-06-10T13:58:31;4.10;;;3.80;;
76837;SDS011;65797;47.352;8.164;2023-06-10T14:00:56;4.50;;;4.10;;
76837;SDS011;65797;47.352;8.164;2023-06-10T14:03:23;4.73;;;3.50;;
76837;SDS011;65797;47.352;8.164;2023-06-10T17:58:36;4.43;;;4.03;;
76837;SDS011;65797;47.352;8.164;2023-06-10T18:01:01;3.37;;;3.17;;
76837;SDS011;65797;47.352;8.164;2023-06-10T18:03:27;5.30;;;4.90;;
76837;SDS011;65797;47.352;8.164;2023-06-10T18:05:53;4.10;;;3.80;;
76837;SDS011;65797;47.352;8.164;2023-06-10T18:08:19;5.03;;;4.17;;
76837;SDS011;65797;47.352;8.164;2023-06-10T18:10:46;5.33;;;4.30;;
76837;SDS011;65797;47.352;8.164;2023-06-10T18:13:11;4.87;;;4.20;;
76837;SDS011;65797;47.352;8.164;2023-06-10T18:15:37;4.87;;;4.40;;
76837;SDS011;65797;47.352;8.164;2023-06-10T18:18:03;4.63;;;4.23;;
76837;SDS011;65797;47.352;8.164;2023-06-10T18:20:29;4.10;;;3.80;;
76837;SDS011;65797;47.352;8.164;2023-06-10T18:22:54;4.50;;;4.20;;
76837;SDS011;65797;47.352;8.164;2023-06-10T18:25:20;4.80;;;4.40;;
76837;SDS011;65797;47.352;8.164;2023-06-10T18:27:46;4.67;;;4.20;;
76837;SDS011;65797;47.352;8.164;2023-06-10T18:30:11;4.30;;;3.90;;
76837;SDS011;65797;47.352;8.164;2023-06-10T18:32:38;5.13;;;4.70;;
76837;SDS011;65797;47.352;8.164;2023-06-10T18:35:04;4.03;;;3.73;;
76837;SDS011;65797;47.352;8.164;2023-06-10T18:37:30;4.00;;;3.70;;
76837;SDS011;65797;47.352;8.164;2023-06-10T18:39:56;4.60;;;4.20;;
76837;SDS011;65797;47.352;8.164;2023-06-10T18:42:21;7.43;;;4.10;;
76837;SDS011;65797;47.352;8.164;2023-06-10T18:44:47;4.20;;;3.90;;
76837;SDS011;65797;47.352;8.164;2023-06-10T18:47:12;5.13;;;4.10;;
76837;SDS011;65797;47.352;8.164;2023-06-10T18:49:38;4.23;;;3.90;;
76837;SDS011;65797;47.352;8.164;2023-06-10T18:52:05;4.30;;;3.90;;
76837;SDS011;65797;47.352;8.164;2023-06-10T18:54:31;4.53;;;4.13;;
76837;SDS011;65797;47.352;8.164;2023-06-10T18:56:58;4.97;;;4.30;;
76837;SDS011;65797;47.352;8.164;2023-06-10T18:59:24;4.60;;;4.10;;
76837;SDS011;65797;47.352;8.164;2023-06-10T19:01:50;4.63;;;4.20;;
76837;SDS011;65797;47.352;8.164;2023-06-10T19:04:16;4.67;;;4.27;;
76837;SDS011;65797;47.352;8.164;2023-06-10T19:06:41;4.47;;;3.60;;
76837;SDS011;65797;47.352;8.164;2023-06-10T19:09:07;13.93;;;4.13;;
76837;SDS011;65797;47.352;8.164;2023-06-10T19:11:33;5.63;;;4.53;;
76837;SDS011;65797;47.352;8.164;2023-06-10T19:13:59;5.50;;;3.60;;
76837;SDS011;65797;47.352;8.164;2023-06-10T19:16:25;4.43;;;3.30;;
76837;SDS011;65797;47.352;8.164;2023-06-10T19:18:51;4.17;;;3.80;;
76837;SDS011;65797;47.352;8.164;2023-06-10T19:21:17;5.83;;;4.33;;
76837;SDS011;65797;47.352;8.164;2023-06-10T19:23:42;4.83;;;4.40;;
76837;SDS011;65797;47.352;8.164;2023-06-10T19:26:08;4.00;;;3.63;;
76837;SDS011;65797;47.352;8.164;2023-06-10T19:28:34;4.30;;;3.90;;
76837;SDS011;65797;47.352;8.164;2023-06-10T19:31:00;4.53;;;4.17;;
76837;SDS011;65797;47.352;8.164;2023-06-10T19:33:25;4.23;;;3.80;;
76837;SDS011;65797;47.352;8.164;2023-06-10T19:35:51;5.93;;;3.90;;
76837;SDS011;65797;47.352;8.164;2023-06-10T19:38:18;4.10;;;3.63;;
76837;SDS011;65797;47.352;8.164;2023-06-10T19:40:44;4.13;;;3.73;;
76837;SDS011;65797;47.352;8.164;2023-06-10T19:43:09;5.40;;;3.80;;
76837;SDS011;65797;47.352;8.164;2023-06-10T19:45:41;7.70;;;4.50;;
76837;SDS011;65797;47.352;8.164;2023-06-10T19:48:13;5.33;;;3.73;;
76837;SDS011;65797;47.352;8.164;2023-06-10T19:50:45;5.60;;;3.90;;